Other Surface Observations
Issued by NWS Missoula, MT

Home | Current Version | Previous Version | Text Only | Print | Product List | Glossary On
Versions: 1 2 3 4 5 6 7 8 9 10 11 12 13 14 15 16 17 18 19 20 21 22 23 24 25 26 27 28 29 30 31 32 33 34 35 36 37 38 39 40 41 42 43 44 45 46 47 48 49 50
314
SXUS55 KMSO 040123
OSOMSO
MONTANA AWOS SUMMARY
NATIONAL WEATHER SERVICE MISSOULA MT
722 PM MDT SAT DEC 3 2016

Montana AWOS Reports

LAUREL      |K6S8 040115Z AUTO 26013G18KT 40SM 03/M07 A2994 RMK AO1 T00281066
TWIN BRIDGES|K7S1 040115Z AUTO 11004KT 40SM M01/M12 A3002 RMK AO1 T10101116
ROUNDUP     |KRPX 040115Z AUTO 27014KT 40SM 02/M09 A2984 RMK AO1 T00221088




USA.gov is the U.S. government's official web portal to all federal, state and local government web resources and services.